sensor_id;sensor_type;location;lat;lon;timestamp;P1;durP1;ratioP1;P2;durP2;ratioP2
69185;SDS011;56298;49.246;9.410;2022-09-03T00:02:43;4.53;;;1.10;;
69185;SDS011;56298;49.246;9.410;2022-09-03T00:05:17;3.80;;;0.90;;
69185;SDS011;56298;49.246;9.410;2022-09-03T00:07:56;4.60;;;1.20;;
69185;SDS011;56298;49.246;9.410;2022-09-03T00:10:42;4.80;;;1.20;;
69185;SDS011;56298;49.246;9.410;2022-09-03T00:13:18;4.70;;;1.13;;
69185;SDS011;56298;49.246;9.410;2022-09-03T00:15:48;4.68;;;1.08;;
69185;SDS011;56298;49.246;9.410;2022-09-03T00:18:18;5.82;;;1.45;;
69185;SDS011;56298;49.246;9.410;2022-09-03T00:20:51;5.10;;;1.03;;
69185;SDS011;56298;49.246;9.410;2022-09-03T00:23:24;3.37;;;1.13;;
69185;SDS011;56298;49.246;9.410;2022-09-03T00:25:59;4.13;;;1.05;;
69185;SDS011;56298;49.246;9.410;2022-09-03T00:28:33;3.92;;;1.30;;
69185;SDS011;56298;49.246;9.410;2022-09-03T00:31:13;5.32;;;1.20;;
69185;SDS011;56298;49.246;9.410;2022-09-03T00:33:45;5.13;;;1.20;;
69185;SDS011;56298;49.246;9.410;2022-09-03T00:36:14;5.93;;;1.30;;
69185;SDS011;56298;49.246;9.410;2022-09-03T00:38:44;4.70;;;1.23;;
69185;SDS011;56298;49.246;9.410;2022-09-03T00:46:46;3.80;;;0.90;;
69185;SDS011;56298;49.246;9.410;2022-09-03T00:54:42;3.83;;;1.02;;
69185;SDS011;56298;49.246;9.410;2022-09-03T00:59:56;3.50;;;1.20;;
69185;SDS011;56298;49.246;9.410;2022-09-03T01:02:48;3.97;;;1.10;;
69185;SDS011;56298;49.246;9.410;2022-09-03T01:11:26;3.20;;;1.00;;
69185;SDS011;56298;49.246;9.410;2022-09-03T01:16:41;3.67;;;1.02;;
69185;SDS011;56298;49.246;9.410;2022-09-03T01:20:02;3.67;;;1.10;;
69185;SDS011;56298;49.246;9.410;2022-09-03T01:23:09;4.20;;;1.20;;
69185;SDS011;56298;49.246;9.410;2022-09-03T01:31:52;7.30;;;1.25;;
69185;SDS011;56298;49.246;9.410;2022-09-03T01:34:44;3.65;;;1.20;;
69185;SDS011;56298;49.246;9.410;2022-09-03T01:47:57;3.77;;;1.20;;
69185;SDS011;56298;49.246;9.410;2022-09-03T01:50:45;3.90;;;1.45;;
69185;SDS011;56298;49.246;9.410;2022-09-03T01:59:29;5.72;;;1.25;;
69185;SDS011;56298;49.246;9.410;2022-09-03T02:02:11;4.03;;;1.15;;
69185;SDS011;56298;49.246;9.410;2022-09-03T02:04:58;4.77;;;1.33;;
69185;SDS011;56298;49.246;9.410;2022-09-03T02:07:40;4.30;;;1.30;;
69185;SDS011;56298;49.246;9.410;2022-09-03T02:10:13;3.55;;;1.20;;
69185;SDS011;56298;49.246;9.410;2022-09-03T02:12:43;4.68;;;1.38;;
69185;SDS011;56298;49.246;9.410;2022-09-03T02:15:14;4.10;;;1.25;;
69185;SDS011;56298;49.246;9.410;2022-09-03T02:17:42;3.63;;;1.30;;
69185;SDS011;56298;49.246;9.410;2022-09-03T02:20:11;3.87;;;1.20;;
69185;SDS011;56298;49.246;9.410;2022-09-03T02:22:43;4.97;;;1.27;;
69185;SDS011;56298;49.246;9.410;2022-09-03T02:25:09;3.60;;;1.23;;
69185;SDS011;56298;49.246;9.410;2022-09-03T02:27:35;4.67;;;1.20;;
69185;SDS011;56298;49.246;9.410;2022-09-03T02:30:02;4.10;;;1.40;;
69185;SDS011;56298;49.246;9.410;2022-09-03T02:32:28;5.70;;;1.38;;
69185;SDS011;56298;49.246;9.410;2022-09-03T02:34:54;3.97;;;1.20;;
69185;SDS011;56298;49.246;9.410;2022-09-03T02:37:20;4.93;;;1.30;;
69185;SDS011;56298;49.246;9.410;2022-09-03T02:39:46;4.30;;;1.25;;
69185;SDS011;56298;49.246;9.410;2022-09-03T02:42:12;3.67;;;1.30;;
69185;SDS011;56298;49.246;9.410;2022-09-03T02:44:40;4.78;;;1.38;;
69185;SDS011;56298;49.246;9.410;2022-09-03T02:47:10;4.53;;;1.48;;
69185;SDS011;56298;49.246;9.410;2022-09-03T02:49:35;5.33;;;1.33;;
69185;SDS011;56298;49.246;9.410;2022-09-03T02:52:02;4.70;;;1.40;;
69185;SDS011;56298;49.246;9.410;2022-09-03T02:54:30;4.05;;;1.33;;
69185;SDS011;56298;49.246;9.410;2022-09-03T02:56:59;4.22;;;1.33;;
69185;SDS011;56298;49.246;9.410;2022-09-03T02:59:25;3.80;;;1.30;;
69185;SDS011;56298;49.246;9.410;2022-09-03T03:01:52;4.70;;;1.20;;
69185;SDS011;56298;49.246;9.410;2022-09-03T03:04:18;3.80;;;1.40;;
69185;SDS011;56298;49.246;9.410;2022-09-03T03:06:43;4.47;;;1.30;;
69185;SDS011;56298;49.246;9.410;2022-09-03T03:09:08;5.50;;;1.50;;
69185;SDS011;56298;49.246;9.410;2022-09-03T03:11:34;4.20;;;1.47;;
69185;SDS011;56298;49.246;9.410;2022-09-03T03:14:00;4.97;;;1.30;;
69185;SDS011;56298;49.246;9.410;2022-09-03T03:16:26;3.70;;;1.20;;
69185;SDS011;56298;49.246;9.410;2022-09-03T03:18:51;5.40;;;1.43;;
69185;SDS011;56298;49.246;9.410;2022-09-03T03:21:17;4.70;;;1.30;;
69185;SDS011;56298;49.246;9.410;2022-09-03T03:23:43;5.05;;;1.40;;
69185;SDS011;56298;49.246;9.410;2022-09-03T03:26:09;4.13;;;1.30;;
69185;SDS011;56298;49.246;9.410;2022-09-03T03:28:37;4.95;;;1.65;;
69185;SDS011;56298;49.246;9.410;2022-09-03T03:31:09;3.87;;;1.33;;
69185;SDS011;56298;49.246;9.410;2022-09-03T03:33:36;4.15;;;1.42;;
69185;SDS011;56298;49.246;9.410;2022-09-03T03:36:05;4.40;;;1.50;;
69185;SDS011;56298;49.246;9.410;2022-09-03T03:38:39;4.05;;;1.42;;
69185;SDS011;56298;49.246;9.410;2022-09-03T03:41:06;3.88;;;1.40;;
69185;SDS011;56298;49.246;9.410;2022-09-03T03:43:36;5.35;;;1.50;;
69185;SDS011;56298;49.246;9.410;2022-09-03T03:46:01;6.22;;;1.45;;
69185;SDS011;56298;49.246;9.410;2022-09-03T03:48:26;4.60;;;1.48;;
69185;SDS011;56298;49.246;9.410;2022-09-03T03:50:52;4.97;;;1.60;;
69185;SDS011;56298;49.246;9.410;2022-09-03T03:53:18;4.18;;;1.45;;
69185;SDS011;56298;49.246;9.410;2022-09-03T03:55:52;4.97;;;1.55;;
69185;SDS011;56298;49.246;9.410;2022-09-03T03:58:20;4.03;;;1.60;;
69185;SDS011;56298;49.246;9.410;2022-09-03T04:00:46;6.10;;;1.60;;
69185;SDS011;56298;49.246;9.410;2022-09-03T04:03:13;4.27;;;1.50;;
69185;SDS011;56298;49.246;9.410;2022-09-03T04:05:39;4.07;;;1.50;;
69185;SDS011;56298;49.246;9.410;2022-09-03T04:08:04;4.20;;;1.50;;
69185;SDS011;56298;49.246;9.410;2022-09-03T04:10:29;5.73;;;1.80;;
69185;SDS011;56298;49.246;9.410;2022-09-03T04:12:55;3.97;;;1.20;;
69185;SDS011;56298;49.246;9.410;2022-09-03T04:15:20;4.30;;;1.47;;
69185;SDS011;56298;49.246;9.410;2022-09-03T04:17:45;4.30;;;1.70;;
69185;SDS011;56298;49.246;9.410;2022-09-03T04:20:10;5.20;;;1.40;;
69185;SDS011;56298;49.246;9.410;2022-09-03T04:22:36;4.33;;;1.70;;
69185;SDS011;56298;49.246;9.410;2022-09-03T04:25:01;4.87;;;1.67;;
69185;SDS011;56298;49.246;9.410;2022-09-03T04:27:26;6.30;;;1.80;;
69185;SDS011;56298;49.246;9.410;2022-09-03T04:29:52;4.80;;;1.70;;
69185;SDS011;56298;49.246;9.410;2022-09-03T04:32:17;3.80;;;1.50;;
69185;SDS011;56298;49.246;9.410;2022-09-03T04:35:00;4.63;;;1.60;;
69185;SDS011;56298;49.246;9.410;2022-09-03T04:37:26;4.50;;;1.60;;
69185;SDS011;56298;49.246;9.410;2022-09-03T04:39:51;5.20;;;1.73;;
69185;SDS011;56298;49.246;9.410;2022-09-03T04:42:18;4.97;;;1.63;;
69185;SDS011;56298;49.246;9.410;2022-09-03T04:44:43;3.70;;;1.50;;
69185;SDS011;56298;49.246;9.410;2022-09-03T04:47:08;4.33;;;1.63;;
69185;SDS011;56298;49.246;9.410;2022-09-03T04:49:34;5.23;;;1.43;;
69185;SDS011;56298;49.246;9.410;2022-09-03T04:51:59;4.40;;;1.43;;
69185;SDS011;56298;49.246;9.410;2022-09-03T04:54:24;3.43;;;1.47;;
69185;SDS011;56298;49.246;9.410;2022-09-03T04:56:49;4.00;;;1.60;;
69185;SDS011;56298;49.246;9.410;2022-09-03T04:59:15;4.30;;;1.80;;
69185;SDS011;56298;49.246;9.410;2022-09-03T05:01:41;3.60;;;1.60;;
69185;SDS011;56298;49.246;9.410;2022-09-03T05:04:07;4.38;;;1.80;;
69185;SDS011;56298;49.246;9.410;2022-09-03T05:06:33;5.00;;;1.50;;
69185;SDS011;56298;49.246;9.410;2022-09-03T05:08:59;4.25;;;1.70;;
69185;SDS011;56298;49.246;9.410;2022-09-03T05:11:25;4.87;;;1.67;;
69185;SDS011;56298;49.246;9.410;2022-09-03T05:13:52;4.10;;;1.70;;
69185;SDS011;56298;49.246;9.410;2022-09-03T05:16:21;5.13;;;1.70;;
69185;SDS011;56298;49.246;9.410;2022-09-03T05:18:47;4.25;;;1.63;;
69185;SDS011;56298;49.246;9.410;2022-09-03T05:21:17;4.18;;;1.90;;
69185;SDS011;56298;49.246;9.410;2022-09-03T05:23:43;4.65;;;1.80;;
69185;SDS011;56298;49.246;9.410;2022-09-03T05:26:11;6.15;;;1.60;;
69185;SDS011;56298;49.246;9.410;2022-09-03T05:28:39;4.63;;;1.70;;
69185;SDS011;56298;49.246;9.410;2022-09-03T05:31:06;4.23;;;1.57;;
69185;SDS011;56298;49.246;9.410;2022-09-03T05:33:36;4.80;;;1.63;;
69185;SDS011;56298;49.246;9.410;2022-09-03T05:36:07;5.50;;;1.77;;
69185;SDS011;56298;49.246;9.410;2022-09-03T05:38:34;4.72;;;1.60;;
69185;SDS011;56298;49.246;9.410;2022-09-03T05:41:00;6.47;;;1.60;;
69185;SDS011;56298;49.246;9.410;2022-09-03T05:43:27;4.32;;;1.45;;
69185;SDS011;56298;49.246;9.410;2022-09-03T05:45:57;5.82;;;1.50;;
69185;SDS011;56298;49.246;9.410;2022-09-03T05:48:24;5.03;;;1.67;;
69185;SDS011;56298;49.246;9.410;2022-09-03T05:50:49;4.40;;;1.50;;
69185;SDS011;56298;49.246;9.410;2022-09-03T05:53:33;3.97;;;1.60;;
69185;SDS011;56298;49.246;9.410;2022-09-03T05:56:00;4.80;;;1.70;;
69185;SDS011;56298;49.246;9.410;2022-09-03T05:58:33;4.47;;;2.03;;
69185;SDS011;56298;49.246;9.410;2022-09-03T06:03:38;4.47;;;1.40;;
69185;SDS011;56298;49.246;9.410;2022-09-03T06:06:04;4.50;;;1.65;;
69185;SDS011;56298;49.246;9.410;2022-09-03T06:08:31;3.83;;;1.67;;
69185;SDS011;56298;49.246;9.410;2022-09-03T06:10:57;4.83;;;1.57;;
69185;SDS011;56298;49.246;9.410;2022-09-03T06:13:23;4.85;;;1.73;;
69185;SDS011;56298;49.246;9.410;2022-09-03T06:15:48;4.90;;;1.60;;
69185;SDS011;56298;49.246;9.410;2022-09-03T06:18:14;4.90;;;1.50;;
69185;SDS011;56298;49.246;9.410;2022-09-03T06:20:39;4.80;;;1.60;;
69185;SDS011;56298;49.246;9.410;2022-09-03T06:23:04;4.70;;;1.50;;
69185;SDS011;56298;49.246;9.410;2022-09-03T06:25:29;3.70;;;1.30;;
69185;SDS011;56298;49.246;9.410;2022-09-03T06:27:55;4.10;;;1.45;;
69185;SDS011;56298;49.246;9.410;2022-09-03T06:30:21;4.50;;;1.40;;
69185;SDS011;56298;49.246;9.410;2022-09-03T06:32:48;4.22;;;1.30;;
69185;SDS011;56298;49.246;9.410;2022-09-03T06:35:18;4.95;;;1.60;;
69185;SDS011;56298;49.246;9.410;2022-09-03T06:37:43;5.90;;;1.40;;
69185;SDS011;56298;49.246;9.410;2022-09-03T06:40:09;4.00;;;1.20;;
69185;SDS011;56298;49.246;9.410;2022-09-03T06:42:37;4.35;;;1.50;;
69185;SDS011;56298;49.246;9.410;2022-09-03T06:45:06;5.32;;;1.30;;
69185;SDS011;56298;49.246;9.410;2022-09-03T06:47:32;3.97;;;1.35;;
69185;SDS011;56298;49.246;9.410;2022-09-03T06:49:58;4.65;;;1.35;;
69185;SDS011;56298;49.246;9.410;2022-09-03T06:52:25;5.80;;;1.58;;
69185;SDS011;56298;49.246;9.410;2022-09-03T06:54:51;4.03;;;1.37;;
69185;SDS011;56298;49.246;9.410;2022-09-03T06:57:16;3.47;;;1.40;;
69185;SDS011;56298;49.246;9.410;2022-09-03T06:59:42;4.30;;;1.40;;
69185;SDS011;56298;49.246;9.410;2022-09-03T07:02:08;5.70;;;1.60;;
69185;SDS011;56298;49.246;9.410;2022-09-03T07:04:33;4.80;;;1.40;;
69185;SDS011;56298;49.246;9.410;2022-09-03T07:06:58;4.30;;;1.50;;
69185;SDS011;56298;49.246;9.410;2022-09-03T07:09:24;4.20;;;1.40;;
69185;SDS011;56298;49.246;9.410;2022-09-03T07:11:50;3.70;;;1.48;;
69185;SDS011;56298;49.246;9.410;2022-09-03T07:14:16;4.00;;;1.50;;
69185;SDS011;56298;49.246;9.410;2022-09-03T07:16:43;4.05;;;1.30;;
69185;SDS011;56298;49.246;9.410;2022-09-03T07:19:10;4.23;;;1.60;;
69185;SDS011;56298;49.246;9.410;2022-09-03T07:21:37;4.47;;;1.53;;
69185;SDS011;56298;49.246;9.410;2022-09-03T07:24:05;4.45;;;1.50;;
69185;SDS011;56298;49.246;9.410;2022-09-03T07:26:33;5.05;;;1.45;;
69185;SDS011;56298;49.246;9.410;2022-09-03T07:29:00;3.80;;;1.60;;
69185;SDS011;56298;49.246;9.410;2022-09-03T07:31:27;4.88;;;1.63;;
69185;SDS011;56298;49.246;9.410;2022-09-03T07:33:59;5.63;;;1.42;;
69185;SDS011;56298;49.246;9.410;2022-09-03T07:36:26;4.77;;;1.50;;
69185;SDS011;56298;49.246;9.410;2022-09-03T07:38:56;3.88;;;1.35;;
69185;SDS011;56298;49.246;9.410;2022-09-03T07:41:23;4.82;;;1.50;;
69185;SDS011;56298;49.246;9.410;2022-09-03T07:43:50;4.00;;;1.30;;
69185;SDS011;56298;49.246;9.410;2022-09-03T07:46:18;4.13;;;1.55;;
69185;SDS011;56298;49.246;9.410;2022-09-03T07:48:48;3.80;;;1.60;;
69185;SDS011;56298;49.246;9.410;2022-09-03T07:51:14;4.40;;;1.52;;
69185;SDS011;56298;49.246;9.410;2022-09-03T07:53:41;4.75;;;1.40;;
69185;SDS011;56298;49.246;9.410;2022-09-03T07:56:07;4.13;;;1.75;;
69185;SDS011;56298;49.246;9.410;2022-09-03T07:58:35;4.40;;;1.40;;
69185;SDS011;56298;49.246;9.410;2022-09-03T08:01:06;6.30;;;1.55;;
69185;SDS011;56298;49.246;9.410;2022-09-03T08:03:40;3.88;;;1.50;;
69185;SDS011;56298;49.246;9.410;2022-09-03T08:06:07;4.83;;;1.70;;
69185;SDS011;56298;49.246;9.410;2022-09-03T08:08:34;5.25;;;1.50;;
69185;SDS011;56298;49.246;9.410;2022-09-03T08:11:09;4.22;;;1.50;;
69185;SDS011;56298;49.246;9.410;2022-09-03T08:13:40;5.65;;;1.50;;
69185;SDS011;56298;49.246;9.410;2022-09-03T08:16:10;4.22;;;1.60;;
69185;SDS011;56298;49.246;9.410;2022-09-03T08:18:38;4.10;;;1.58;;
69185;SDS011;56298;49.246;9.410;2022-09-03T08:21:13;6.70;;;1.70;;
69185;SDS011;56298;49.246;9.410;2022-09-03T08:23:43;4.40;;;1.67;;
69185;SDS011;56298;49.246;9.410;2022-09-03T08:26:09;5.25;;;1.80;;
69185;SDS011;56298;49.246;9.410;2022-09-03T08:28:36;5.05;;;1.60;;
69185;SDS011;56298;49.246;9.410;2022-09-03T08:33:57;4.03;;;1.60;;
69185;SDS011;56298;49.246;9.410;2022-09-03T08:38:51;5.47;;;1.70;;
69185;SDS011;56298;49.246;9.410;2022-09-03T08:47:00;5.13;;;1.70;;
69185;SDS011;56298;49.246;9.410;2022-09-03T08:49:33;4.53;;;1.73;;
69185;SDS011;56298;49.246;9.410;2022-09-03T08:52:03;5.00;;;1.70;;
69185;SDS011;56298;49.246;9.410;2022-09-03T08:54:39;4.53;;;1.80;;
69185;SDS011;56298;49.246;9.410;2022-09-03T08:57:05;4.30;;;1.77;;
69185;SDS011;56298;49.246;9.410;2022-09-03T08:59:32;4.35;;;1.80;;
69185;SDS011;56298;49.246;9.410;2022-09-03T09:07:29;4.73;;;2.00;;
69185;SDS011;56298;49.246;9.410;2022-09-03T09:10:04;5.82;;;2.00;;
69185;SDS011;56298;49.246;9.410;2022-09-03T09:12:43;5.28;;;2.08;;
69185;SDS011;56298;49.246;9.410;2022-09-03T09:21:49;4.70;;;1.98;;
69185;SDS011;56298;49.246;9.410;2022-09-03T09:24:20;4.85;;;2.05;;
69185;SDS011;56298;49.246;9.410;2022-09-03T09:26:47;4.47;;;1.98;;
69185;SDS011;56298;49.246;9.410;2022-09-03T09:29:13;4.65;;;2.20;;
69185;SDS011;56298;49.246;9.410;2022-09-03T09:31:39;4.60;;;2.00;;
69185;SDS011;56298;49.246;9.410;2022-09-03T09:34:09;4.78;;;2.20;;
69185;SDS011;56298;49.246;9.410;2022-09-03T09:36:46;4.50;;;2.28;;
69185;SDS011;56298;49.246;9.410;2022-09-03T09:39:13;4.90;;;2.17;;
69185;SDS011;56298;49.246;9.410;2022-09-03T09:41:42;5.72;;;2.50;;
69185;SDS011;56298;49.246;9.410;2022-09-03T09:44:16;4.85;;;2.28;;
69185;SDS011;56298;49.246;9.410;2022-09-03T09:46:43;5.13;;;2.30;;
69185;SDS011;56298;49.246;9.410;2022-09-03T09:54:50;5.03;;;2.20;;
69185;SDS011;56298;49.246;9.410;2022-09-03T09:57:17;6.20;;;2.30;;
69185;SDS011;56298;49.246;9.410;2022-09-03T09:59:46;6.20;;;2.30;;
69185;SDS011;56298;49.246;9.410;2022-09-03T10:02:13;5.47;;;2.50;;
69185;SDS011;56298;49.246;9.410;2022-09-03T10:04:44;5.50;;;2.20;;
69185;SDS011;56298;49.246;9.410;2022-09-03T10:07:19;5.88;;;2.50;;
69185;SDS011;56298;49.246;9.410;2022-09-03T10:12:31;5.47;;;2.40;;
69185;SDS011;56298;49.246;9.410;2022-09-03T10:23:24;4.50;;;2.20;;
69185;SDS011;56298;49.246;9.410;2022-09-03T10:28:34;5.90;;;2.90;;
69185;SDS011;56298;49.246;9.410;2022-09-03T10:36:34;4.93;;;2.22;;
69185;SDS011;56298;49.246;9.410;2022-09-03T10:44:15;6.03;;;2.67;;
69185;SDS011;56298;49.246;9.410;2022-09-03T10:47:01;5.20;;;2.50;;
69185;SDS011;56298;49.246;9.410;2022-09-03T10:52:53;6.20;;;2.67;;
69185;SDS011;56298;49.246;9.410;2022-09-03T10:55:34;5.35;;;2.60;;
69185;SDS011;56298;49.246;9.410;2022-09-03T11:07:01;5.00;;;2.50;;
69185;SDS011;56298;49.246;9.410;2022-09-03T11:09:47;5.07;;;2.38;;
69185;SDS011;56298;49.246;9.410;2022-09-03T11:12:23;4.53;;;2.60;;
69185;SDS011;56298;49.246;9.410;2022-09-03T11:15:09;5.40;;;2.30;;
69185;SDS011;56298;49.246;9.410;2022-09-03T11:17:45;5.22;;;3.20;;
69185;SDS011;56298;49.246;9.410;2022-09-03T11:20:21;4.60;;;2.60;;
69185;SDS011;56298;49.246;9.410;2022-09-03T11:22:49;4.68;;;2.35;;
69185;SDS011;56298;49.246;9.410;2022-09-03T11:25:18;5.78;;;2.50;;
69185;SDS011;56298;49.246;9.410;2022-09-03T11:30:25;4.70;;;2.20;;
69185;SDS011;56298;49.246;9.410;2022-09-03T11:32:58;4.10;;;2.03;;
69185;SDS011;56298;49.246;9.410;2022-09-03T11:37:58;4.82;;;2.20;;
69185;SDS011;56298;49.246;9.410;2022-09-03T11:40:31;4.10;;;2.40;;
69185;SDS011;56298;49.246;9.410;2022-09-03T11:43:05;4.43;;;2.03;;
69185;SDS011;56298;49.246;9.410;2022-09-03T11:45:59;5.30;;;2.10;;
69185;SDS011;56298;49.246;9.410;2022-09-03T11:48:30;5.20;;;2.10;;
69185;SDS011;56298;49.246;9.410;2022-09-03T11:51:00;4.35;;;2.10;;
69185;SDS011;56298;49.246;9.410;2022-09-03T11:53:31;4.40;;;2.20;;
69185;SDS011;56298;49.246;9.410;2022-09-03T11:56:11;4.10;;;2.10;;
69185;SDS011;56298;49.246;9.410;2022-09-03T11:58:42;4.22;;;2.10;;
69185;SDS011;56298;49.246;9.410;2022-09-03T12:01:09;4.10;;;2.00;;
69185;SDS011;56298;49.246;9.410;2022-09-03T12:11:54;4.40;;;2.10;;
69185;SDS011;56298;49.246;9.410;2022-09-03T12:14:39;4.78;;;2.10;;
69185;SDS011;56298;49.246;9.410;2022-09-03T12:20:11;6.78;;;2.22;;
69185;SDS011;56298;49.246;9.410;2022-09-03T12:22:39;5.88;;;2.00;;
69185;SDS011;56298;49.246;9.410;2022-09-03T12:25:09;4.87;;;2.10;;
69185;SDS011;56298;49.246;9.410;2022-09-03T12:27:37;4.55;;;2.10;;
69185;SDS011;56298;49.246;9.410;2022-09-03T12:30:03;4.50;;;2.10;;
69185;SDS011;56298;49.246;9.410;2022-09-03T12:32:37;4.47;;;2.13;;
69185;SDS011;56298;49.246;9.410;2022-09-03T12:35:17;4.37;;;2.20;;
69185;SDS011;56298;49.246;9.410;2022-09-03T12:37:44;5.20;;;2.33;;
69185;SDS011;56298;49.246;9.410;2022-09-03T12:40:17;5.03;;;2.43;;
69185;SDS011;56298;49.246;9.410;2022-09-03T12:42:47;4.30;;;2.30;;
69185;SDS011;56298;49.246;9.410;2022-09-03T12:45:14;5.18;;;2.20;;
69185;SDS011;56298;49.246;9.410;2022-09-03T12:47:43;4.25;;;2.30;;
69185;SDS011;56298;49.246;9.410;2022-09-03T12:50:19;4.40;;;2.30;;
69185;SDS011;56298;49.246;9.410;2022-09-03T12:52:47;4.53;;;2.33;;
69185;SDS011;56298;49.246;9.410;2022-09-03T12:55:25;4.10;;;2.20;;
69185;SDS011;56298;49.246;9.410;2022-09-03T12:57:54;4.63;;;2.13;;
69185;SDS011;56298;49.246;9.410;2022-09-03T13:00:31;5.40;;;2.40;;
69185;SDS011;56298;49.246;9.410;2022-09-03T13:03:04;5.93;;;2.30;;
69185;SDS011;56298;49.246;9.410;2022-09-03T13:05:34;6.07;;;2.17;;
69185;SDS011;56298;49.246;9.410;2022-09-03T13:08:05;5.78;;;2.30;;
69185;SDS011;56298;49.246;9.410;2022-09-03T13:10:38;4.20;;;2.08;;
69185;SDS011;56298;49.246;9.410;2022-09-03T13:13:20;4.25;;;2.08;;
69185;SDS011;56298;49.246;9.410;2022-09-03T13:22:01;6.93;;;2.00;;
69185;SDS011;56298;49.246;9.410;2022-09-03T13:24:45;4.18;;;2.35;;
69185;SDS011;56298;49.246;9.410;2022-09-03T13:27:41;4.38;;;2.20;;
69185;SDS011;56298;49.246;9.410;2022-09-03T13:30:21;4.30;;;2.25;;
69185;SDS011;56298;49.246;9.410;2022-09-03T13:35:34;5.43;;;2.10;;
69185;SDS011;56298;49.246;9.410;2022-09-03T13:38:06;4.50;;;2.38;;
69185;SDS011;56298;49.246;9.410;2022-09-03T13:40:48;4.78;;;2.10;;
69185;SDS011;56298;49.246;9.410;2022-09-03T13:43:25;4.80;;;2.30;;
69185;SDS011;56298;49.246;9.410;2022-09-03T13:45:54;5.30;;;2.30;;
69185;SDS011;56298;49.246;9.410;2022-09-03T13:48:42;4.47;;;2.33;;
69185;SDS011;56298;49.246;9.410;2022-09-03T13:51:36;4.82;;;2.10;;
69185;SDS011;56298;49.246;9.410;2022-09-03T13:54:17;4.10;;;2.10;;
69185;SDS011;56298;49.246;9.410;2022-09-03T13:56:50;4.55;;;2.08;;
69185;SDS011;56298;49.246;9.410;2022-09-03T13:59:21;3.88;;;1.98;;
69185;SDS011;56298;49.246;9.410;2022-09-03T14:02:27;3.80;;;2.07;;
69185;SDS011;56298;49.246;9.410;2022-09-03T14:05:10;4.70;;;1.90;;
69185;SDS011;56298;49.246;9.410;2022-09-03T14:10:37;4.85;;;2.20;;
69185;SDS011;56298;49.246;9.410;2022-09-03T14:13:29;5.43;;;2.03;;
69185;SDS011;56298;49.246;9.410;2022-09-03T14:16:25;3.83;;;1.83;;
69185;SDS011;56298;49.246;9.410;2022-09-03T14:19:51;4.07;;;2.10;;
69185;SDS011;56298;49.246;9.410;2022-09-03T14:25:22;5.93;;;2.30;;
69185;SDS011;56298;49.246;9.410;2022-09-03T14:27:50;4.53;;;1.95;;
69185;SDS011;56298;49.246;9.410;2022-09-03T14:40:51;5.30;;;2.03;;
69185;SDS011;56298;49.246;9.410;2022-09-03T14:46:14;4.47;;;1.95;;
69185;SDS011;56298;49.246;9.410;2022-09-03T14:49:17;4.53;;;2.22;;
69185;SDS011;56298;49.246;9.410;2022-09-03T14:55:18;4.15;;;2.20;;
69185;SDS011;56298;49.246;9.410;2022-09-03T15:01:32;7.13;;;2.80;;
69185;SDS011;56298;49.246;9.410;2022-09-03T15:07:04;6.13;;;2.70;;
69185;SDS011;56298;49.246;9.410;2022-09-03T15:09:53;8.27;;;3.30;;
69185;SDS011;56298;49.246;9.410;2022-09-03T15:18:19;6.70;;;3.13;;
69185;SDS011;56298;49.246;9.410;2022-09-03T15:37:24;4.43;;;2.10;;
69185;SDS011;56298;49.246;9.410;2022-09-03T15:40:07;4.03;;;1.77;;
69185;SDS011;56298;49.246;9.410;2022-09-03T15:42:44;9.43;;;1.73;;
69185;SDS011;56298;49.246;9.410;2022-09-03T15:45:18;4.30;;;1.55;;
69185;SDS011;56298;49.246;9.410;2022-09-03T15:47:55;4.70;;;1.60;;
69185;SDS011;56298;49.246;9.410;2022-09-03T15:56:17;5.72;;;2.13;;
69185;SDS011;56298;49.246;9.410;2022-09-03T16:01:47;6.43;;;2.50;;
69185;SDS011;56298;49.246;9.410;2022-09-03T16:04:27;6.88;;;2.55;;
69185;SDS011;56298;49.246;9.410;2022-09-03T16:07:06;7.25;;;2.53;;
69185;SDS011;56298;49.246;9.410;2022-09-03T16:15:26;7.22;;;3.10;;
69185;SDS011;56298;49.246;9.410;2022-09-03T16:18:04;5.78;;;3.08;;
69185;SDS011;56298;49.246;9.410;2022-09-03T16:20:45;6.20;;;2.90;;
69185;SDS011;56298;49.246;9.410;2022-09-03T16:25:56;7.43;;;3.33;;
69185;SDS011;56298;49.246;9.410;2022-09-03T16:28:28;8.60;;;3.85;;
69185;SDS011;56298;49.246;9.410;2022-09-03T16:36:47;13.80;;;5.20;;
69185;SDS011;56298;49.246;9.410;2022-09-03T16:39:23;13.67;;;5.13;;
69185;SDS011;56298;49.246;9.410;2022-09-03T16:45:26;11.80;;;4.68;;
69185;SDS011;56298;49.246;9.410;2022-09-03T16:48:06;8.50;;;4.20;;
69185;SDS011;56298;49.246;9.410;2022-09-03T16:50:47;10.38;;;5.05;;
69185;SDS011;56298;49.246;9.410;2022-09-03T16:53:28;10.90;;;5.30;;
69185;SDS011;56298;49.246;9.410;2022-09-03T17:15:43;10.07;;;5.90;;
69185;SDS011;56298;49.246;9.410;2022-09-03T17:18:31;9.27;;;5.07;;
69185;SDS011;56298;49.246;9.410;2022-09-03T17:35:17;9.90;;;5.50;;
69185;SDS011;56298;49.246;9.410;2022-09-03T17:41:14;9.02;;;5.80;;
69185;SDS011;56298;49.246;9.410;2022-09-03T17:46:30;11.70;;;7.10;;
69185;SDS011;56298;49.246;9.410;2022-09-03T17:49:25;12.68;;;6.45;;
69185;SDS011;56298;49.246;9.410;2022-09-03T17:52:04;10.48;;;6.68;;
69185;SDS011;56298;49.246;9.410;2022-09-03T17:54:40;11.25;;;6.20;;
69185;SDS011;56298;49.246;9.410;2022-09-03T17:57:22;11.10;;;6.38;;
69185;SDS011;56298;49.246;9.410;2022-09-03T18:00:02;9.88;;;5.82;;
69185;SDS011;56298;49.246;9.410;2022-09-03T18:02:50;9.93;;;6.20;;
69185;SDS011;56298;49.246;9.410;2022-09-03T18:07:57;9.00;;;6.10;;
69185;SDS011;56298;49.246;9.410;2022-09-03T18:13:20;11.32;;;5.90;;
69185;SDS011;56298;49.246;9.410;2022-09-03T18:16:11;10.13;;;5.82;;
69185;SDS011;56298;49.246;9.410;2022-09-03T18:21:54;11.83;;;6.00;;
69185;SDS011;56298;49.246;9.410;2022-09-03T18:24:43;9.60;;;5.78;;
69185;SDS011;56298;49.246;9.410;2022-09-03T18:27:42;9.98;;;5.60;;
69185;SDS011;56298;49.246;9.410;2022-09-03T18:30:39;8.82;;;5.65;;
69185;SDS011;56298;49.246;9.410;2022-09-03T18:33:23;9.48;;;5.85;;
69185;SDS011;56298;49.246;9.410;2022-09-03T18:36:09;9.30;;;5.75;;
69185;SDS011;56298;49.246;9.410;2022-09-03T18:38:56;9.80;;;6.35;;
69185;SDS011;56298;49.246;9.410;2022-09-03T18:41:48;8.90;;;5.30;;
69185;SDS011;56298;49.246;9.410;2022-09-03T18:47:56;10.15;;;6.03;;
69185;SDS011;56298;49.246;9.410;2022-09-03T18:53:51;9.63;;;5.90;;
69185;SDS011;56298;49.246;9.410;2022-09-03T18:56:50;12.20;;;6.90;;
69185;SDS011;56298;49.246;9.410;2022-09-03T18:59:45;12.02;;;7.65;;
69185;SDS011;56298;49.246;9.410;2022-09-03T19:02:56;12.80;;;8.53;;
69185;SDS011;56298;49.246;9.410;2022-09-03T19:12:47;9.85;;;6.50;;
69185;SDS011;56298;49.246;9.410;2022-09-03T19:15:40;11.57;;;6.55;;
69185;SDS011;56298;49.246;9.410;2022-09-03T19:18:45;9.68;;;6.53;;
69185;SDS011;56298;49.246;9.410;2022-09-03T19:22:18;10.40;;;6.43;;
69185;SDS011;56298;49.246;9.410;2022-09-03T19:25:07;11.00;;;6.80;;
69185;SDS011;56298;49.246;9.410;2022-09-03T19:31:04;10.15;;;6.63;;
69185;SDS011;56298;49.246;9.410;2022-09-03T19:37:02;10.13;;;6.80;;
69185;SDS011;56298;49.246;9.410;2022-09-03T19:55:25;15.50;;;8.10;;
69185;SDS011;56298;49.246;9.410;2022-09-03T19:58:13;12.35;;;7.85;;
69185;SDS011;56298;49.246;9.410;2022-09-03T20:01:00;11.40;;;8.00;;
69185;SDS011;56298;49.246;9.410;2022-09-03T20:03:44;11.32;;;7.10;;
69185;SDS011;56298;49.246;9.410;2022-09-03T20:06:28;12.07;;;7.50;;
69185;SDS011;56298;49.246;9.410;2022-09-03T20:09:16;11.23;;;7.32;;
69185;SDS011;56298;49.246;9.410;2022-09-03T20:12:04;11.48;;;7.47;;
69185;SDS011;56298;49.246;9.410;2022-09-03T20:14:32;11.45;;;7.60;;
69185;SDS011;56298;49.246;9.410;2022-09-03T20:17:14;11.85;;;8.20;;
69185;SDS011;56298;49.246;9.410;2022-09-03T20:19:51;13.45;;;8.70;;
69185;SDS011;56298;49.246;9.410;2022-09-03T20:25:15;12.48;;;7.93;;
69185;SDS011;56298;49.246;9.410;2022-09-03T20:28:14;11.52;;;7.47;;